Maimiti — PBIJ — position and weather

sailwx.info

Track history (hours):
 
Tides and Currents Weather Stations Pressure Air Temp Water Temp Dewpoint Dewpoint Depression Visibility Wind Speed Wind Dir Waves Ship Positions

Maimiti

Last reported at 2017-Nov-20 00:30 UTC. Time now 2017-Nov-21 23:15 UTC.
Position N 51°28' E 003°40'.

Length 35 m; draft 6.7 m.

Type: Tug. MMSI: 244850959.

Date/timePositionNaut miles runAvg speedWind from/ knotsBaromVisibWave heightAir tempDewpointWater temp
2017-Nov-20 00:30N 51°28' E 003°40'0 0.0
2017-Nov-20 00:01N 51°28' E 003°40'0 0.0
2017-Nov-19 23:30N 51°28' E 003°40'0 0.0
2017-Nov-19 23:00N 51°28' E 003°40'0 0.0
2017-Nov-19 22:31N 51°28' E 003°40'0 0.0
2017-Nov-19 22:01N 51°28' E 003°40'0 0.0
2017-Nov-19 21:30N 51°28' E 003°40'0 0.0
2017-Nov-19 21:00N 51°28' E 003°40'0 0.0
2017-Nov-19 20:30N 51°28' E 003°40'0 0.0
2017-Nov-19 20:00N 51°28' E 003°40'0 0.0
2017-Nov-19 19:30N 51°28' E 003°40'0 0.0
2017-Nov-19 19:01N 51°28' E 003°40'0 0.0
2017-Nov-19 18:30N 51°28' E 003°40'0 0.0
2017-Nov-19 18:00N 51°28' E 003°40'0 0.0
2017-Nov-19 17:30N 51°28' E 003°40'0 0.0
2017-Nov-19 17:00N 51°28' E 003°40'0 0.0
2017-Nov-19 16:30N 51°28' E 003°40'2 3.3
2017-Nov-19 16:00N 51°26' E 003°41'5 9.1
2017-Nov-19 15:30N 51°22' E 003°45'3 6.3
2017-Nov-19 15:01N 51°20' E 003°49'2 3.8
2017-Nov-19 14:30N 51°21' E 003°46'0 0.3
2017-Nov-19 14:00N 51°21' E 003°46'1 2.6
2017-Nov-19 13:31N 51°21' E 003°48'1 2.3
2017-Nov-19 13:00N 51°21' E 003°50'510.1
2017-Nov-19 12:30N 51°23' E 003°43'510.0
2017-Nov-19 12:00N 51°25' E 003°36'5 9.6
2017-Nov-19 11:30N 51°25' E 003°28'4 8.5
2017-Nov-19 11:00N 51°24' E 003°21'4 8.0
2017-Nov-19 10:30N 51°24' E 003°15'4 7.0
2017-Nov-19 10:00N 51°24' E 003°09'3 6.8
2017-Nov-19 09:30N 51°24' E 003°04'2 4.8
2017-Nov-19 09:00N 51°23' E 003°00'2 4.8
2017-Nov-19 08:30N 51°22' E 002°57'3 6.3
2017-Nov-19 08:00N 51°21' E 002°52'3 6.9
2017-Nov-19 07:30N 51°21' E 002°46'4 7.3
2017-Nov-19 06:57N 51°21' E 002°40'3 6.6
2017-Nov-19 06:29N 51°22' E 002°35'3 6.2
2017-Nov-19 06:00N 51°22' E 002°30'3 5.1
2017-Nov-19 05:29N 51°24' E 002°31'72 7.0
2017-Nov-18 19:06N 52°34' E 001°60'1 9.8
2017-Nov-18 19:00N 52°35' E 001°59'5 9.7
2017-Nov-18 18:30N 52°40' E 001°57'5 9.3
2017-Nov-18 18:00N 52°44' E 001°55'4 8.9
2017-Nov-18 17:30N 52°48' E 001°51'4 8.2
2017-Nov-18 17:00N 52°50' E 001°46'4 7.5
2017-Nov-18 16:30N 52°53' E 001°41'4 7.0
2017-Nov-18 16:00N 52°55' E 001°37'3 5.7
2017-Nov-18 15:30N 52°57' E 001°33'3 5.5
2017-Nov-18 15:00N 52°59' E 001°29'3 5.7
2017-Nov-18 14:30N 53°00' E 001°25'3 5.5
2017-Nov-18 14:00N 53°01' E 001°21'3 5.3
2017-Nov-18 13:30N 53°02' E 001°17'3 5.5
2017-Nov-18 13:00N 53°03' E 001°13'61 6.7
2017-Nov-18 03:51N 53°52' E 000°10'4 8.2
2017-Nov-18 03:24N 53°54' E 000°06'5 8.1
2017-Nov-18 02:50N 53°58' E 000°01'3 8.3
2017-Nov-18 02:28N 54°01' E 000°00'4 8.6
2017-Nov-18 02:00N 54°05' W 000°01'4 8.8
2017-Nov-18 01:30N 54°09' W 000°03'4 8.2
2017-Nov-18 01:00N 54°13' W 000°07'4 7.6
2017-Nov-18 00:31N 54°16' W 000°11'4 7.2
2017-Nov-18 00:00N 54°19' W 000°15'3 6.9
2017-Nov-17 23:30N 54°21' W 000°18'3 6.5
2017-Nov-17 23:00N 54°24' W 000°21'3 6.3
2017-Nov-17 22:30N 54°27' W 000°25'24 5.9
2017-Nov-17 18:27N 54°42' W 000°56'3 6.4
2017-Nov-17 18:00N 54°44' W 001°00'3 6.6
2017-Nov-17 17:30N 54°46' W 001°05'3 6.8
2017-Nov-17 17:00N 54°48' W 001°09'3 6.9
2017-Nov-17 16:30N 54°51' W 001°12'4 7.1
2017-Nov-17 16:00N 54°54' W 001°16'4 7.2
2017-Nov-17 15:30N 54°57' W 001°19'4 7.4
2017-Nov-17 15:00N 55°00' W 001°23'2 4.9
2017-Nov-17 14:30N 54°60' W 001°27'2 4.6
2017-Nov-17 14:00N 54°59' W 001°31'0 0.1
2017-Nov-17 13:28N 54°59' W 001°31'0 0.0
2017-Nov-17 12:58N 54°59' W 001°31'0 0.0
2017-Nov-17 12:28N 54°59' W 001°31'0 0.0
2017-Nov-17 11:58N 54°59' W 001°31'0 0.0
2017-Nov-17 11:28N 54°59' W 001°31'0 0.0
2017-Nov-17 10:58N 54°59' W 001°31'0 0.0
2017-Nov-17 10:28N 54°59' W 001°31'0 0.0
2017-Nov-17 09:58N 54°59' W 001°31'0 0.0
2017-Nov-17 09:28N 54°59' W 001°31'0 0.0
2017-Nov-17 08:58N 54°59' W 001°31'0 0.0
2017-Nov-17 08:28N 54°59' W 001°31'0 0.0
2017-Nov-17 07:58N 54°59' W 001°31'0 0.0
2017-Nov-17 07:28N 54°59' W 001°31'0 0.0
2017-Nov-17 06:58N 54°59' W 001°31'0 0.0
2017-Nov-17 06:28N 54°59' W 001°31'0 0.0
2017-Nov-17 05:58N 54°59' W 001°31'0 0.0
2017-Nov-17 05:28N 54°59' W 001°31'0 0.0
2017-Nov-17 04:58N 54°59' W 001°31'0 0.0
2017-Nov-17 04:28N 54°59' W 001°31'0 0.0
2017-Nov-17 03:58N 54°59' W 001°31'0 0.0
2017-Nov-17 03:19N 54°59' W 001°31'0 0.0
2017-Nov-17 02:58N 54°59' W 001°31'0 0.0
2017-Nov-17 02:19N 54°59' W 001°31'0 0.0
2017-Nov-17 01:49N 54°59' W 001°31'0 0.0
2017-Nov-17 01:19N 54°59' W 001°31'0 0.0
2017-Nov-17 00:49N 54°59' W 001°31'0 0.0
2017-Nov-17 00:19N 54°59' W 001°31'0 0.0
2017-Nov-16 23:52N 54°59' W 001°31'0 0.0
2017-Nov-16 23:22N 54°59' W 001°31'0 0.0
2017-Nov-16 22:52N 54°59' W 001°31'0 0.0
2017-Nov-16 22:22N 54°59' W 001°31'0 0.0
2017-Nov-16 21:52N 54°59' W 001°31'0 0.0
2017-Nov-16 21:22N 54°59' W 001°31'0 0.0
2017-Nov-16 20:52N 54°59' W 001°31'0 0.0
2017-Nov-16 20:22N 54°59' W 001°31'0 0.0
2017-Nov-16 19:52N 54°59' W 001°31'0 0.0
2017-Nov-16 19:25N 54°59' W 001°31'0 0.0
2017-Nov-16 18:55N 54°59' W 001°31'0 0.1
2017-Nov-16 18:25N 54°59' W 001°31'0 0.0
2017-Nov-16 17:52N 54°59' W 001°31'0 0.0
2017-Nov-16 17:25N 54°59' W 001°31'0 0.0
2017-Nov-16 16:55N 54°59' W 001°31'0 0.0
2017-Nov-16 16:25N 54°59' W 001°31'0 0.0
2017-Nov-16 15:55N 54°59' W 001°31'0 0.0
2017-Nov-16 15:25N 54°59' W 001°31'0 0.0
2017-Nov-16 15:01N 54°59' W 001°31'0 0.1
2017-Nov-16 14:31N 54°59' W 001°31'0 0.8
2017-Nov-16 14:00N 54°59' W 001°30'2 4.7
2017-Nov-16 13:30N 55°00' W 001°26'4 7.6
2017-Nov-16 13:01N 55°03' W 001°21'2 3.0
2017-Nov-16 12:30N 55°01' W 001°22'0 0.6
2017-Nov-16 12:00N 55°01' W 001°21'0 0.4
2017-Nov-16 11:30N 55°01' W 001°21'0 0.5
2017-Nov-16 11:00N 55°01' W 001°21'0 0.7
2017-Nov-16 10:30N 55°00' W 001°21'1 1.1
2017-Nov-16 10:00N 54°60' W 001°20'1 1.9
2017-Nov-16 09:30N 54°59' W 001°20'2 4.0
2017-Nov-16 09:00N 54°57' W 001°18'4 7.2
2017-Nov-16 08:30N 54°54' W 001°14'4 7.4
2017-Nov-16 08:00N 54°52' W 001°10'33 7.4
2017-Nov-16 03:36N 54°30' W 000°28'1 6.5
2017-Nov-16 03:30N 54°29' W 000°27'3 6.4
2017-Nov-16 03:01N 54°27' W 000°24'3 6.2
2017-Nov-16 02:31N 54°24' W 000°21'3 6.1
2017-Nov-16 02:01N 54°22' W 000°18'3 6.2
2017-Nov-16 01:31N 54°19' W 000°15'3 6.2
2017-Nov-16 01:00N 54°16' W 000°12'3 6.3
2017-Nov-16 00:31N 54°14' W 000°09'3 6.4
2017-Nov-16 00:01N 54°11' W 000°06'3 6.5
2017-Nov-15 23:31N 54°08' W 000°03'75 7.0
2017-Nov-15 12:51N 53°05' E 001°05'3 8.6
2017-Nov-15 12:30N 53°04' E 001°10'4 8.6
2017-Nov-15 12:00N 53°03' E 001°16'4 8.9
2017-Nov-15 11:30N 53°00' E 001°23'5 9.2
2017-Nov-15 11:01N 52°58' E 001°29'5 9.3
2017-Nov-15 10:30N 52°55' E 001°35'4 8.9
2017-Nov-15 10:00N 52°52' E 001°40'4 8.1
2017-Nov-15 09:29N 52°49' E 001°46'85 6.9
2017-Nov-14 21:12N 51°34' E 002°50'2 6.6
2017-Nov-14 20:56N 51°33' E 002°51'3 6.4
2017-Nov-14 20:26N 51°31' E 002°55'3 6.6
2017-Nov-14 20:00N 51°28' E 002°58'3 5.5
2017-Nov-14 19:31N 51°26' E 003°00'3 5.7
2017-Nov-14 19:00N 51°25' E 003°04'3 6.6
2017-Nov-14 18:31N 51°24' E 003°09'3 6.4
2017-Nov-14 18:00N 51°25' E 003°15'4 7.2
2017-Nov-14 17:27N 51°25' E 003°21'4 7.6
2017-Nov-14 17:00N 51°25' E 003°27'4 8.0
2017-Nov-14 16:30N 51°26' E 003°33'4 9.0
2017-Nov-14 16:01N 51°27' E 003°40'4 8.8
2017-Nov-14 15:31N 51°23' E 003°44'5 9.2
2017-Nov-14 15:00N 51°21' E 003°50'0 0.6
2017-Nov-14 14:30N 51°20' E 003°50'1 2.0
2017-Nov-14 14:00N 51°21' E 003°49'0 0.8
2017-Nov-14 13:31N 51°20' E 003°49'0 0.0
2017-Nov-14 13:00N 51°20' E 003°49'0 0.0
2017-Nov-14 12:30N 51°20' E 003°49'0 0.0
2017-Nov-14 12:00N 51°20' E 003°49'0 0.0
2017-Nov-14 11:30N 51°20' E 003°49'0 0.0
2017-Nov-14 11:01N 51°20' E 003°49'0 0.0
2017-Nov-14 10:31N 51°20' E 003°49'2 4.2
2017-Nov-14 10:01N 51°21' E 003°46'0 0.4
2017-Nov-14 09:31N 51°21' E 003°46'2 4.2
2017-Nov-14 09:01N 51°23' E 003°43'2 3.1
2017-Nov-14 08:31N 51°24' E 003°43'4 7.7
2017-Nov-14 08:00N 51°28' E 003°40'0 0.0
2017-Nov-14 07:30N 51°28' E 003°40'0 0.0
2017-Nov-14 07:00N 51°28' E 003°40'0 0.6
2017-Nov-14 06:30N 51°27' E 003°41'1 2.4
2017-Nov-14 06:00N 51°27' E 003°42'0 0.2
2017-Nov-14 05:30N 51°27' E 003°42'1 2.9
2017-Nov-14 05:00N 51°28' E 003°40'0 0.0
2017-Nov-14 04:30N 51°28' E 003°40'0 0.0
2017-Nov-14 04:00N 51°28' E 003°40'0 0.0
2017-Nov-14 03:30N 51°28' E 003°40'0 0.0
2017-Nov-14 03:00N 51°28' E 003°40'0 0.0
2017-Nov-14 02:30N 51°28' E 003°40'0 0.0
2017-Nov-14 02:00N 51°28' E 003°40'0 0.0
2017-Nov-14 01:30N 51°28' E 003°40'0 0.0
2017-Nov-14 01:00N 51°28' E 003°40'0 0.0
2017-Nov-14 00:30N 51°28' E 003°40'0 0.0
2017-Nov-14 00:00N 51°28' E 003°40'0 0.0
2017-Nov-13 23:30N 51°28' E 003°40'0 0.0
2017-Nov-13 23:00N 51°28' E 003°40'0 0.0
2017-Nov-13 22:30N 51°28' E 003°40'0 0.0
2017-Nov-13 22:00N 51°28' E 003°40'7 0.4
2017-Nov-13 02:00N 51°25' E 003°29'0 0.5
2017-Nov-13 01:30N 51°25' E 003°29'0 0.3
2017-Nov-13 01:00N 51°25' E 003°28'0 0.2
2017-Nov-13 00:30N 51°25' E 003°28'0 0.2
2017-Nov-13 00:00N 51°25' E 003°29'0 0.2
2017-Nov-12 23:30N 51°25' E 003°29'0 0.1
2017-Nov-12 23:00N 51°25' E 003°29'0 0.4
2017-Nov-12 22:29N 51°25' E 003°29'0 0.4
2017-Nov-12 22:00N 51°25' E 003°29'0 0.2
2017-Nov-12 21:30N 51°26' E 003°29'0 0.2
2017-Nov-12 21:00N 51°26' E 003°29'0 0.1
2017-Nov-12 20:28N 51°26' E 003°29'0 0.7
2017-Nov-12 20:00N 51°26' E 003°29'2 4.1
2017-Nov-12 19:30N 51°25' E 003°32'3 5.1
2017-Nov-12 19:00N 51°25' E 003°36'0 0.3
2017-Nov-12 18:30N 51°25' E 003°36'0 0.4
2017-Nov-12 18:00N 51°25' E 003°36'2 3.1
2017-Nov-12 17:30N 51°26' E 003°38'2 4.3
2017-Nov-12 17:00N 51°28' E 003°40'0 0.0
2017-Nov-12 16:30N 51°28' E 003°40'0 0.0
2017-Nov-12 16:00N 51°28' E 003°40'0 0.0
2017-Nov-12 15:30N 51°28' E 003°40'0 0.0
2017-Nov-12 15:00N 51°28' E 003°40'0 0.0
2017-Nov-12 14:30N 51°28' E 003°40'0 0.0
2017-Nov-12 14:00N 51°28' E 003°40'0 0.0
2017-Nov-12 13:29N 51°28' E 003°40'0 0.0
2017-Nov-12 13:00N 51°28' E 003°40'0 0.0
2017-Nov-12 12:30N 51°28' E 003°40'0 0.0
2017-Nov-12 12:00N 51°28' E 003°40'0 0.0
2017-Nov-12 11:30N 51°28' E 003°40'0 0.0
2017-Nov-12 11:00N 51°28' E 003°40'0 0.0
2017-Nov-12 10:30N 51°28' E 003°40'0 0.9
2017-Nov-12 10:00N 51°28' E 003°41'1 2.8
2017-Nov-12 09:30N 51°27' E 003°43'1 2.2
2017-Nov-12 09:00N 51°27' E 003°42'2 4.0
2017-Nov-12 08:30N 51°26' E 003°39'0 0.2
2017-Nov-12 08:00N 51°26' E 003°39'2 3.4
2017-Nov-12 07:30N 51°28' E 003°40'0 0.0
2017-Nov-12 07:00N 51°28' E 003°40'0 0.0
2017-Nov-12 06:30N 51°28' E 003°40'0 0.0
2017-Nov-12 06:00N 51°28' E 003°40'0 0.0
2017-Nov-12 05:30N 51°28' E 003°40'0 0.0
2017-Nov-12 05:00N 51°28' E 003°40'0 0.0
2017-Nov-12 04:30N 51°28' E 003°40'0 0.0
2017-Nov-12 04:00N 51°28' E 003°40'0 0.0
2017-Nov-12 03:30N 51°28' E 003°40'0 0.0
2017-Nov-12 03:00N 51°28' E 003°40'0 0.0
2017-Nov-12 02:30N 51°28' E 003°40'0 0.0
2017-Nov-12 02:00N 51°28' E 003°40'0 0.0
2017-Nov-12 01:30N 51°28' E 003°40'0 0.0
2017-Nov-12 01:00N 51°28' E 003°40'0 0.0
2017-Nov-12 00:30N 51°28' E 003°40'0 0.0
2017-Nov-12 00:00N 51°28' E 003°40'0 0.0
2017-Nov-11 23:30N 51°28' E 003°40'0 0.0
2017-Nov-11 23:00N 51°28' E 003°40'0 0.0
2017-Nov-11 22:30N 51°28' E 003°40'0 0.0
2017-Nov-11 22:00N 51°28' E 003°40'0 0.0
2017-Nov-11 21:30N 51°28' E 003°40'0 0.0
2017-Nov-11 21:00N 51°28' E 003°40'0 0.0
2017-Nov-11 20:30N 51°28' E 003°40'1 2.8
2017-Nov-11 20:00N 51°28' E 003°42'0 0.0
2017-Nov-11 19:30N 51°28' E 003°42'0 0.3
2017-Nov-11 19:00N 51°28' E 003°42'0 0.5
2017-Nov-11 18:30N 51°28' E 003°43'1 2.0
2017-Nov-11 18:00N 51°27' E 003°41'1 1.9
2017-Nov-11 17:30N 51°27' E 003°43'0 0.2
2017-Nov-11 17:00N 51°27' E 003°42'0 0.1
2017-Nov-11 16:30N 51°27' E 003°42'0 0.1
2017-Nov-11 16:00N 51°27' E 003°42'1 2.8
2017-Nov-11 15:30N 51°28' E 003°40'0 0.0
2017-Nov-11 15:00N 51°28' E 003°40'0 0.0
2017-Nov-11 14:30N 51°28' E 003°40'0 0.0
2017-Nov-11 14:00N 51°28' E 003°40'0 0.0
2017-Nov-11 13:30N 51°28' E 003°40'0 0.0
2017-Nov-11 13:00N 51°28' E 003°40'0 0.0
2017-Nov-11 12:30N 51°28' E 003°40'0 0.0
2017-Nov-11 12:00N 51°28' E 003°40'0 0.0
2017-Nov-11 11:30N 51°28' E 003°40'0 0.0
2017-Nov-11 11:00N 51°28' E 003°40'0 0.0
2017-Nov-11 10:30N 51°28' E 003°40'0 0.0
2017-Nov-11 10:00N 51°28' E 003°40'0 0.0
2017-Nov-11 09:30N 51°28' E 003°40'0 0.0
2017-Nov-11 09:00N 51°28' E 003°40'0 0.0
2017-Nov-11 08:30N 51°28' E 003°40'0 0.0
2017-Nov-11 08:00N 51°28' E 003°40'0 0.0
2017-Nov-11 07:30N 51°28' E 003°40'0 0.0
2017-Nov-11 07:00N 51°28' E 003°40'0 0.0
2017-Nov-11 06:30N 51°28' E 003°40'0 0.0
2017-Nov-11 06:00N 51°28' E 003°40'0 0.0
2017-Nov-11 05:30N 51°28' E 003°40'0 0.0
2017-Nov-11 05:00N 51°28' E 003°40'0 0.0
2017-Nov-11 04:30N 51°28' E 003°40'0 0.0
2017-Nov-11 04:00N 51°28' E 003°40'0 0.0
2017-Nov-11 03:30N 51°28' E 003°40'0 0.0
2017-Nov-11 03:00N 51°28' E 003°40'0 0.0
2017-Nov-11 02:30N 51°28' E 003°40'0 0.0
2017-Nov-11 02:00N 51°28' E 003°40'0 0.3
2017-Nov-11 01:30N 51°27' E 003°40'0 0.3
2017-Nov-11 01:00N 51°28' E 003°40'0 0.0
2017-Nov-11 00:30N 51°28' E 003°40'0 0.0
2017-Nov-11 00:00N 51°28' E 003°40'0 0.0
2017-Nov-10 23:30N 51°28' E 003°40'0 0.0
2017-Nov-10 23:00N 51°28' E 003°40'0 0.2
2017-Nov-10 22:30N 51°27' E 003°41'1 2.9
2017-Nov-10 22:00N 51°28' E 003°43'2 3.1
2017-Nov-10 21:30N 51°28' E 003°40'0 0.0
2017-Nov-10 21:00N 51°28' E 003°40'0 0.0
2017-Nov-10 20:30N 51°28' E 003°40'0 0.0
2017-Nov-10 20:00N 51°28' E 003°40'0 0.0
2017-Nov-10 19:30N 51°28' E 003°40'0 0.0
2017-Nov-10 19:00N 51°28' E 003°40'0 0.0
2017-Nov-10 18:30N 51°28' E 003°40'0 0.0
2017-Nov-10 18:00N 51°28' E 003°40'0 0.0
2017-Nov-10 17:30N 51°28' E 003°40'0 0.0
2017-Nov-10 16:59N 51°28' E 003°40'0 0.0
2017-Nov-10 16:30N 51°28' E 003°40'0 0.0
2017-Nov-10 16:00N 51°28' E 003°40'0 0.0
2017-Nov-10 15:30N 51°28' E 003°40'0 0.0
2017-Nov-10 15:00N 51°28' E 003°40'0 0.0
2017-Nov-10 14:30N 51°28' E 003°40'0 0.0
2017-Nov-10 14:00N 51°28' E 003°40'0 0.0
2017-Nov-10 13:30N 51°28' E 003°40'0 0.0
2017-Nov-10 13:00N 51°28' E 003°40'0 0.0
2017-Nov-10 12:30N 51°28' E 003°40'0 0.0
2017-Nov-10 12:00N 51°28' E 003°40'0 0.0
2017-Nov-10 11:30N 51°28' E 003°40'0 0.0
2017-Nov-10 11:00N 51°28' E 003°40'0 0.0
2017-Nov-10 10:30N 51°28' E 003°40'0 0.0
2017-Nov-10 09:59N 51°28' E 003°40'0 0.0
2017-Nov-10 09:30N 51°28' E 003°40'1 1.3
2017-Nov-10 09:00N 51°27' E 003°40'4 8.9
2017-Nov-10 08:30N 51°23' E 003°44'4 8.5
2017-Nov-10 08:00N 51°20' E 003°49'0 0.0
2017-Nov-10 07:30N 51°20' E 003°49'0 0.0
2017-Nov-10 07:00N 51°20' E 003°49'0 0.0
2017-Nov-10 06:30N 51°20' E 003°49'0 0.0
2017-Nov-10 06:00N 51°20' E 003°49'0 0.0
2017-Nov-10 05:30N 51°20' E 003°49'0 0.0
2017-Nov-10 05:00N 51°20' E 003°49'0 0.0
2017-Nov-10 04:30N 51°20' E 003°49'0 0.0
2017-Nov-10 04:00N 51°20' E 003°49'0 0.0
2017-Nov-10 03:30N 51°20' E 003°49'0 0.0
2017-Nov-10 03:00N 51°20' E 003°49'0 0.0
2017-Nov-10 02:30N 51°20' E 003°49'0 0.1
2017-Nov-10 02:00N 51°20' E 003°49'2 3.7
2017-Nov-10 01:30N 51°21' E 003°46'0 0.1
2017-Nov-10 01:00N 51°21' E 003°46'2 3.7
2017-Nov-10 00:30N 51°20' E 003°49'  
Track history (hours):
 
Tides and Currents Weather Stations Pressure Air Temp Water Temp Dewpoint Dewpoint Depression Visibility Wind Speed Wind Dir Waves Ship Positions

Maimiti

Last reported at 2017-Nov-20 00:30 UTC. Time now 2017-Nov-21 23:15 UTC.
Position N 51°28' E 003°40'.

Length 35 m; draft 6.7 m.

Type: Tug. MMSI: 244850959.

Date/timePositionNaut miles runAvg speedWind from/ knotsBaromVisibWave heightAir tempDewpointWater temp
2017-Nov-20 00:30N 51°28' E 003°40'0 0.0
2017-Nov-20 00:01N 51°28' E 003°40'0 0.0
2017-Nov-19 23:30N 51°28' E 003°40'0 0.0
2017-Nov-19 23:00N 51°28' E 003°40'0 0.0
2017-Nov-19 22:31N 51°28' E 003°40'0 0.0
2017-Nov-19 22:01N 51°28' E 003°40'0 0.0
2017-Nov-19 21:30N 51°28' E 003°40'0 0.0
2017-Nov-19 21:00N 51°28' E 003°40'0 0.0
2017-Nov-19 20:30N 51°28' E 003°40'0 0.0
2017-Nov-19 20:00N 51°28' E 003°40'0 0.0
2017-Nov-19 19:30N 51°28' E 003°40'0 0.0
2017-Nov-19 19:01N 51°28' E 003°40'0 0.0
2017-Nov-19 18:30N 51°28' E 003°40'0 0.0
2017-Nov-19 18:00N 51°28' E 003°40'0 0.0
2017-Nov-19 17:30N 51°28' E 003°40'0 0.0
2017-Nov-19 17:00N 51°28' E 003°40'0 0.0
2017-Nov-19 16:30N 51°28' E 003°40'2 3.3
2017-Nov-19 16:00N 51°26' E 003°41'5 9.1
2017-Nov-19 15:30N 51°22' E 003°45'3 6.3
2017-Nov-19 15:01N 51°20' E 003°49'2 3.8
2017-Nov-19 14:30N 51°21' E 003°46'0 0.3
2017-Nov-19 14:00N 51°21' E 003°46'1 2.6
2017-Nov-19 13:31N 51°21' E 003°48'1 2.3
2017-Nov-19 13:00N 51°21' E 003°50'510.1
2017-Nov-19 12:30N 51°23' E 003°43'510.0
2017-Nov-19 12:00N 51°25' E 003°36'5 9.6
2017-Nov-19 11:30N 51°25' E 003°28'4 8.5
2017-Nov-19 11:00N 51°24' E 003°21'4 8.0
2017-Nov-19 10:30N 51°24' E 003°15'4 7.0
2017-Nov-19 10:00N 51°24' E 003°09'3 6.8
2017-Nov-19 09:30N 51°24' E 003°04'2 4.8
2017-Nov-19 09:00N 51°23' E 003°00'2 4.8
2017-Nov-19 08:30N 51°22' E 002°57'3 6.3
2017-Nov-19 08:00N 51°21' E 002°52'3 6.9
2017-Nov-19 07:30N 51°21' E 002°46'4 7.3
2017-Nov-19 06:57N 51°21' E 002°40'3 6.6
2017-Nov-19 06:29N 51°22' E 002°35'3 6.2
2017-Nov-19 06:00N 51°22' E 002°30'3 5.1
2017-Nov-19 05:29N 51°24' E 002°31'72 7.0
2017-Nov-18 19:06N 52°34' E 001°60'1 9.8
2017-Nov-18 19:00N 52°35' E 001°59'5 9.7
2017-Nov-18 18:30N 52°40' E 001°57'5 9.3
2017-Nov-18 18:00N 52°44' E 001°55'4 8.9
2017-Nov-18 17:30N 52°48' E 001°51'4 8.2
2017-Nov-18 17:00N 52°50' E 001°46'4 7.5
2017-Nov-18 16:30N 52°53' E 001°41'4 7.0
2017-Nov-18 16:00N 52°55' E 001°37'3 5.7
2017-Nov-18 15:30N 52°57' E 001°33'3 5.5
2017-Nov-18 15:00N 52°59' E 001°29'3 5.7
2017-Nov-18 14:30N 53°00' E 001°25'3 5.5
2017-Nov-18 14:00N 53°01' E 001°21'3 5.3
2017-Nov-18 13:30N 53°02' E 001°17'3 5.5
2017-Nov-18 13:00N 53°03' E 001°13'61 6.7
2017-Nov-18 03:51N 53°52' E 000°10'4 8.2
2017-Nov-18 03:24N 53°54' E 000°06'5 8.1
2017-Nov-18 02:50N 53°58' E 000°01'3 8.3
2017-Nov-18 02:28N 54°01' E 000°00'4 8.6
2017-Nov-18 02:00N 54°05' W 000°01'4 8.8
2017-Nov-18 01:30N 54°09' W 000°03'4 8.2
2017-Nov-18 01:00N 54°13' W 000°07'4 7.6
2017-Nov-18 00:31N 54°16' W 000°11'4 7.2
2017-Nov-18 00:00N 54°19' W 000°15'3 6.9
2017-Nov-17 23:30N 54°21' W 000°18'3 6.5
2017-Nov-17 23:00N 54°24' W 000°21'3 6.3
2017-Nov-17 22:30N 54°27' W 000°25'24 5.9
2017-Nov-17 18:27N 54°42' W 000°56'3 6.4
2017-Nov-17 18:00N 54°44' W 001°00'3 6.6
2017-Nov-17 17:30N 54°46' W 001°05'3 6.8
2017-Nov-17 17:00N 54°48' W 001°09'3 6.9
2017-Nov-17 16:30N 54°51' W 001°12'4 7.1
2017-Nov-17 16:00N 54°54' W 001°16'4 7.2
2017-Nov-17 15:30N 54°57' W 001°19'4 7.4
2017-Nov-17 15:00N 55°00' W 001°23'2 4.9
2017-Nov-17 14:30N 54°60' W 001°27'2 4.6
2017-Nov-17 14:00N 54°59' W 001°31'0 0.1
2017-Nov-17 13:28N 54°59' W 001°31'0 0.0
2017-Nov-17 12:58N 54°59' W 001°31'0 0.0
2017-Nov-17 12:28N 54°59' W 001°31'0 0.0
2017-Nov-17 11:58N 54°59' W 001°31'0 0.0
2017-Nov-17 11:28N 54°59' W 001°31'0 0.0
2017-Nov-17 10:58N 54°59' W 001°31'0 0.0
2017-Nov-17 10:28N 54°59' W 001°31'0 0.0
2017-Nov-17 09:58N 54°59' W 001°31'0 0.0
2017-Nov-17 09:28N 54°59' W 001°31'0 0.0
2017-Nov-17 08:58N 54°59' W 001°31'0 0.0
2017-Nov-17 08:28N 54°59' W 001°31'0 0.0
2017-Nov-17 07:58N 54°59' W 001°31'0 0.0
2017-Nov-17 07:28N 54°59' W 001°31'0 0.0
2017-Nov-17 06:58N 54°59' W 001°31'0 0.0
2017-Nov-17 06:28N 54°59' W 001°31'0 0.0
2017-Nov-17 05:58N 54°59' W 001°31'0 0.0
2017-Nov-17 05:28N 54°59' W 001°31'0 0.0
2017-Nov-17 04:58N 54°59' W 001°31'0 0.0
2017-Nov-17 04:28N 54°59' W 001°31'0 0.0
2017-Nov-17 03:58N 54°59' W 001°31'0 0.0
2017-Nov-17 03:19N 54°59' W 001°31'0 0.0
2017-Nov-17 02:58N 54°59' W 001°31'0 0.0
2017-Nov-17 02:19N 54°59' W 001°31'0 0.0
2017-Nov-17 01:49N 54°59' W 001°31'0 0.0
2017-Nov-17 01:19N 54°59' W 001°31'0 0.0
2017-Nov-17 00:49N 54°59' W 001°31'0 0.0
2017-Nov-17 00:19N 54°59' W 001°31'0 0.0
2017-Nov-16 23:52N 54°59' W 001°31'0 0.0
2017-Nov-16 23:22N 54°59' W 001°31'0 0.0
2017-Nov-16 22:52N 54°59' W 001°31'0 0.0
2017-Nov-16 22:22N 54°59' W 001°31'0 0.0
2017-Nov-16 21:52N 54°59' W 001°31'0 0.0
2017-Nov-16 21:22N 54°59' W 001°31'0 0.0
2017-Nov-16 20:52N 54°59' W 001°31'0 0.0
2017-Nov-16 20:22N 54°59' W 001°31'0 0.0
2017-Nov-16 19:52N 54°59' W 001°31'0 0.0
2017-Nov-16 19:25N 54°59' W 001°31'0 0.0
2017-Nov-16 18:55N 54°59' W 001°31'0 0.1
2017-Nov-16 18:25N 54°59' W 001°31'0 0.0
2017-Nov-16 17:52N 54°59' W 001°31'0 0.0
2017-Nov-16 17:25N 54°59' W 001°31'0 0.0
2017-Nov-16 16:55N 54°59' W 001°31'0 0.0
2017-Nov-16 16:25N 54°59' W 001°31'0 0.0
2017-Nov-16 15:55N 54°59' W 001°31'0 0.0
2017-Nov-16 15:25N 54°59' W 001°31'0 0.0
2017-Nov-16 15:01N 54°59' W 001°31'0 0.1
2017-Nov-16 14:31N 54°59' W 001°31'0 0.8
2017-Nov-16 14:00N 54°59' W 001°30'2 4.7
2017-Nov-16 13:30N 55°00' W 001°26'4 7.6
2017-Nov-16 13:01N 55°03' W 001°21'2 3.0
2017-Nov-16 12:30N 55°01' W 001°22'0 0.6
2017-Nov-16 12:00N 55°01' W 001°21'0 0.4
2017-Nov-16 11:30N 55°01' W 001°21'0 0.5
2017-Nov-16 11:00N 55°01' W 001°21'0 0.7
2017-Nov-16 10:30N 55°00' W 001°21'1 1.1
2017-Nov-16 10:00N 54°60' W 001°20'1 1.9
2017-Nov-16 09:30N 54°59' W 001°20'2 4.0
2017-Nov-16 09:00N 54°57' W 001°18'4 7.2
2017-Nov-16 08:30N 54°54' W 001°14'4 7.4
2017-Nov-16 08:00N 54°52' W 001°10'33 7.4
2017-Nov-16 03:36N 54°30' W 000°28'1 6.5
2017-Nov-16 03:30N 54°29' W 000°27'3 6.4
2017-Nov-16 03:01N 54°27' W 000°24'3 6.2
2017-Nov-16 02:31N 54°24' W 000°21'3 6.1
2017-Nov-16 02:01N 54°22' W 000°18'3 6.2
2017-Nov-16 01:31N 54°19' W 000°15'3 6.2
2017-Nov-16 01:00N 54°16' W 000°12'3 6.3
2017-Nov-16 00:31N 54°14' W 000°09'3 6.4
2017-Nov-16 00:01N 54°11' W 000°06'3 6.5
2017-Nov-15 23:31N 54°08' W 000°03'75 7.0
2017-Nov-15 12:51N 53°05' E 001°05'3 8.6
2017-Nov-15 12:30N 53°04' E 001°10'4 8.6
2017-Nov-15 12:00N 53°03' E 001°16'4 8.9
2017-Nov-15 11:30N 53°00' E 001°23'5 9.2
2017-Nov-15 11:01N 52°58' E 001°29'5 9.3
2017-Nov-15 10:30N 52°55' E 001°35'4 8.9
2017-Nov-15 10:00N 52°52' E 001°40'4 8.1
2017-Nov-15 09:29N 52°49' E 001°46'85 6.9
2017-Nov-14 21:12N 51°34' E 002°50'2 6.6
2017-Nov-14 20:56N 51°33' E 002°51'3 6.4
2017-Nov-14 20:26N 51°31' E 002°55'3 6.6
2017-Nov-14 20:00N 51°28' E 002°58'3 5.5
2017-Nov-14 19:31N 51°26' E 003°00'3 5.7
2017-Nov-14 19:00N 51°25' E 003°04'3 6.6
2017-Nov-14 18:31N 51°24' E 003°09'3 6.4
2017-Nov-14 18:00N 51°25' E 003°15'4 7.2
2017-Nov-14 17:27N 51°25' E 003°21'4 7.6
2017-Nov-14 17:00N 51°25' E 003°27'4 8.0
2017-Nov-14 16:30N 51°26' E 003°33'4 9.0
2017-Nov-14 16:01N 51°27' E 003°40'4 8.8
2017-Nov-14 15:31N 51°23' E 003°44'5 9.2
2017-Nov-14 15:00N 51°21' E 003°50'0 0.6
2017-Nov-14 14:30N 51°20' E 003°50'1 2.0
2017-Nov-14 14:00N 51°21' E 003°49'0 0.8
2017-Nov-14 13:31N 51°20' E 003°49'0 0.0
2017-Nov-14 13:00N 51°20' E 003°49'0 0.0
2017-Nov-14 12:30N 51°20' E 003°49'0 0.0
2017-Nov-14 12:00N 51°20' E 003°49'0 0.0
2017-Nov-14 11:30N 51°20' E 003°49'0 0.0
2017-Nov-14 11:01N 51°20' E 003°49'0 0.0
2017-Nov-14 10:31N 51°20' E 003°49'2 4.2
2017-Nov-14 10:01N 51°21' E 003°46'0 0.4
2017-Nov-14 09:31N 51°21' E 003°46'2 4.2
2017-Nov-14 09:01N 51°23' E 003°43'2 3.1
2017-Nov-14 08:31N 51°24' E 003°43'4 7.7
2017-Nov-14 08:00N 51°28' E 003°40'0 0.0
2017-Nov-14 07:30N 51°28' E 003°40'0 0.0
2017-Nov-14 07:00N 51°28' E 003°40'0 0.6
2017-Nov-14 06:30N 51°27' E 003°41'1 2.4
2017-Nov-14 06:00N 51°27' E 003°42'0 0.2
2017-Nov-14 05:30N 51°27' E 003°42'1 2.9
2017-Nov-14 05:00N 51°28' E 003°40'0 0.0
2017-Nov-14 04:30N 51°28' E 003°40'0 0.0
2017-Nov-14 04:00N 51°28' E 003°40'0 0.0
2017-Nov-14 03:30N 51°28' E 003°40'0 0.0
2017-Nov-14 03:00N 51°28' E 003°40'0 0.0
2017-Nov-14 02:30N 51°28' E 003°40'0 0.0
2017-Nov-14 02:00N 51°28' E 003°40'0 0.0
2017-Nov-14 01:30N 51°28' E 003°40'0 0.0
2017-Nov-14 01:00N 51°28' E 003°40'0 0.0
2017-Nov-14 00:30N 51°28' E 003°40'0 0.0
2017-Nov-14 00:00N 51°28' E 003°40'0 0.0
2017-Nov-13 23:30N 51°28' E 003°40'0 0.0
2017-Nov-13 23:00N 51°28' E 003°40'0 0.0
2017-Nov-13 22:30N 51°28' E 003°40'0 0.0
2017-Nov-13 22:00N 51°28' E 003°40'7 0.4
2017-Nov-13 02:00N 51°25' E 003°29'0 0.5
2017-Nov-13 01:30N 51°25' E 003°29'0 0.3
2017-Nov-13 01:00N 51°25' E 003°28'0 0.2
2017-Nov-13 00:30N 51°25' E 003°28'0 0.2
2017-Nov-13 00:00N 51°25' E 003°29'0 0.2
2017-Nov-12 23:30N 51°25' E 003°29'0 0.1
2017-Nov-12 23:00N 51°25' E 003°29'0 0.4
2017-Nov-12 22:29N 51°25' E 003°29'0 0.4
2017-Nov-12 22:00N 51°25' E 003°29'0 0.2
2017-Nov-12 21:30N 51°26' E 003°29'0 0.2
2017-Nov-12 21:00N 51°26' E 003°29'0 0.1
2017-Nov-12 20:28N 51°26' E 003°29'0 0.7
2017-Nov-12 20:00N 51°26' E 003°29'2 4.1
2017-Nov-12 19:30N 51°25' E 003°32'3 5.1
2017-Nov-12 19:00N 51°25' E 003°36'0 0.3
2017-Nov-12 18:30N 51°25' E 003°36'0 0.4
2017-Nov-12 18:00N 51°25' E 003°36'2 3.1
2017-Nov-12 17:30N 51°26' E 003°38'2 4.3
2017-Nov-12 17:00N 51°28' E 003°40'0 0.0
2017-Nov-12 16:30N 51°28' E 003°40'0 0.0
2017-Nov-12 16:00N 51°28' E 003°40'0 0.0
2017-Nov-12 15:30N 51°28' E 003°40'0 0.0
2017-Nov-12 15:00N 51°28' E 003°40'0 0.0
2017-Nov-12 14:30N 51°28' E 003°40'0 0.0
2017-Nov-12 14:00N 51°28' E 003°40'0 0.0
2017-Nov-12 13:29N 51°28' E 003°40'0 0.0
2017-Nov-12 13:00N 51°28' E 003°40'0 0.0
2017-Nov-12 12:30N 51°28' E 003°40'0 0.0
2017-Nov-12 12:00N 51°28' E 003°40'0 0.0
2017-Nov-12 11:30N 51°28' E 003°40'0 0.0
2017-Nov-12 11:00N 51°28' E 003°40'0 0.0
2017-Nov-12 10:30N 51°28' E 003°40'0 0.9
2017-Nov-12 10:00N 51°28' E 003°41'1 2.8
2017-Nov-12 09:30N 51°27' E 003°43'1 2.2
2017-Nov-12 09:00N 51°27' E 003°42'2 4.0
2017-Nov-12 08:30N 51°26' E 003°39'0 0.2
2017-Nov-12 08:00N 51°26' E 003°39'2 3.4
2017-Nov-12 07:30N 51°28' E 003°40'0 0.0
2017-Nov-12 07:00N 51°28' E 003°40'0 0.0
2017-Nov-12 06:30N 51°28' E 003°40'0 0.0
2017-Nov-12 06:00N 51°28' E 003°40'0 0.0
2017-Nov-12 05:30N 51°28' E 003°40'0 0.0
2017-Nov-12 05:00N 51°28' E 003°40'0 0.0
2017-Nov-12 04:30N 51°28' E 003°40'0 0.0
2017-Nov-12 04:00N 51°28' E 003°40'0 0.0
2017-Nov-12 03:30N 51°28' E 003°40'0 0.0
2017-Nov-12 03:00N 51°28' E 003°40'0 0.0
2017-Nov-12 02:30N 51°28' E 003°40'0 0.0
2017-Nov-12 02:00N 51°28' E 003°40'0 0.0
2017-Nov-12 01:30N 51°28' E 003°40'0 0.0
2017-Nov-12 01:00N 51°28' E 003°40'0 0.0
2017-Nov-12 00:30N 51°28' E 003°40'0 0.0
2017-Nov-12 00:00N 51°28' E 003°40'0 0.0
2017-Nov-11 23:30N 51°28' E 003°40'0 0.0
2017-Nov-11 23:00N 51°28' E 003°40'0 0.0
2017-Nov-11 22:30N 51°28' E 003°40'0 0.0
2017-Nov-11 22:00N 51°28' E 003°40'0 0.0
2017-Nov-11 21:30N 51°28' E 003°40'0 0.0
2017-Nov-11 21:00N 51°28' E 003°40'0 0.0
2017-Nov-11 20:30N 51°28' E 003°40'1 2.8
2017-Nov-11 20:00N 51°28' E 003°42'0 0.0
2017-Nov-11 19:30N 51°28' E 003°42'0 0.3
2017-Nov-11 19:00N 51°28' E 003°42'0 0.5
2017-Nov-11 18:30N 51°28' E 003°43'1 2.0
2017-Nov-11 18:00N 51°27' E 003°41'1 1.9
2017-Nov-11 17:30N 51°27' E 003°43'0 0.2
2017-Nov-11 17:00N 51°27' E 003°42'0 0.1
2017-Nov-11 16:30N 51°27' E 003°42'0 0.1
2017-Nov-11 16:00N 51°27' E 003°42'1 2.8
2017-Nov-11 15:30N 51°28' E 003°40'0 0.0
2017-Nov-11 15:00N 51°28' E 003°40'0 0.0
2017-Nov-11 14:30N 51°28' E 003°40'0 0.0
2017-Nov-11 14:00N 51°28' E 003°40'0 0.0
2017-Nov-11 13:30N 51°28' E 003°40'0 0.0
2017-Nov-11 13:00N 51°28' E 003°40'0 0.0
2017-Nov-11 12:30N 51°28' E 003°40'0 0.0
2017-Nov-11 12:00N 51°28' E 003°40'0 0.0
2017-Nov-11 11:30N 51°28' E 003°40'0 0.0
2017-Nov-11 11:00N 51°28' E 003°40'0 0.0
2017-Nov-11 10:30N 51°28' E 003°40'0 0.0
2017-Nov-11 10:00N 51°28' E 003°40'0 0.0
2017-Nov-11 09:30N 51°28' E 003°40'0 0.0
2017-Nov-11 09:00N 51°28' E 003°40'0 0.0
2017-Nov-11 08:30N 51°28' E 003°40'0 0.0
2017-Nov-11 08:00N 51°28' E 003°40'0 0.0
2017-Nov-11 07:30N 51°28' E 003°40'0 0.0
2017-Nov-11 07:00N 51°28' E 003°40'0 0.0
2017-Nov-11 06:30N 51°28' E 003°40'0 0.0
2017-Nov-11 06:00N 51°28' E 003°40'0 0.0
2017-Nov-11 05:30N 51°28' E 003°40'0 0.0
2017-Nov-11 05:00N 51°28' E 003°40'0 0.0
2017-Nov-11 04:30N 51°28' E 003°40'0 0.0
2017-Nov-11 04:00N 51°28' E 003°40'0 0.0
2017-Nov-11 03:30N 51°28' E 003°40'0 0.0
2017-Nov-11 03:00N 51°28' E 003°40'0 0.0
2017-Nov-11 02:30N 51°28' E 003°40'0 0.0
2017-Nov-11 02:00N 51°28' E 003°40'0 0.3
2017-Nov-11 01:30N 51°27' E 003°40'0 0.3
2017-Nov-11 01:00N 51°28' E 003°40'0 0.0
2017-Nov-11 00:30N 51°28' E 003°40'0 0.0
2017-Nov-11 00:00N 51°28' E 003°40'0 0.0
2017-Nov-10 23:30N 51°28' E 003°40'0 0.0
2017-Nov-10 23:00N 51°28' E 003°40'0 0.2
2017-Nov-10 22:30N 51°27' E 003°41'1 2.9
2017-Nov-10 22:00N 51°28' E 003°43'2 3.1
2017-Nov-10 21:30N 51°28' E 003°40'0 0.0
2017-Nov-10 21:00N 51°28' E 003°40'0 0.0
2017-Nov-10 20:30N 51°28' E 003°40'0 0.0
2017-Nov-10 20:00N 51°28' E 003°40'0 0.0
2017-Nov-10 19:30N 51°28' E 003°40'0 0.0
2017-Nov-10 19:00N 51°28' E 003°40'0 0.0
2017-Nov-10 18:30N 51°28' E 003°40'0 0.0
2017-Nov-10 18:00N 51°28' E 003°40'0 0.0
2017-Nov-10 17:30N 51°28' E 003°40'0 0.0
2017-Nov-10 16:59N 51°28' E 003°40'0 0.0
2017-Nov-10 16:30N 51°28' E 003°40'0 0.0
2017-Nov-10 16:00N 51°28' E 003°40'0 0.0
2017-Nov-10 15:30N 51°28' E 003°40'0 0.0
2017-Nov-10 15:00N 51°28' E 003°40'0 0.0
2017-Nov-10 14:30N 51°28' E 003°40'0 0.0
2017-Nov-10 14:00N 51°28' E 003°40'0 0.0
2017-Nov-10 13:30N 51°28' E 003°40'0 0.0
2017-Nov-10 13:00N 51°28' E 003°40'0 0.0
2017-Nov-10 12:30N 51°28' E 003°40'0 0.0
2017-Nov-10 12:00N 51°28' E 003°40'0 0.0
2017-Nov-10 11:30N 51°28' E 003°40'0 0.0
2017-Nov-10 11:00N 51°28' E 003°40'0 0.0
2017-Nov-10 10:30N 51°28' E 003°40'0 0.0
2017-Nov-10 09:59N 51°28' E 003°40'0 0.0
2017-Nov-10 09:30N 51°28' E 003°40'1 1.3
2017-Nov-10 09:00N 51°27' E 003°40'4 8.9
2017-Nov-10 08:30N 51°23' E 003°44'4 8.5
2017-Nov-10 08:00N 51°20' E 003°49'0 0.0
2017-Nov-10 07:30N 51°20' E 003°49'0 0.0
2017-Nov-10 07:00N 51°20' E 003°49'0 0.0
2017-Nov-10 06:30N 51°20' E 003°49'0 0.0
2017-Nov-10 06:00N 51°20' E 003°49'0 0.0
2017-Nov-10 05:30N 51°20' E 003°49'0 0.0
2017-Nov-10 05:00N 51°20' E 003°49'0 0.0
2017-Nov-10 04:30N 51°20' E 003°49'0 0.0
2017-Nov-10 04:00N 51°20' E 003°49'0 0.0
2017-Nov-10 03:30N 51°20' E 003°49'0 0.0
2017-Nov-10 03:00N 51°20' E 003°49'0 0.0
2017-Nov-10 02:30N 51°20' E 003°49'0 0.1
2017-Nov-10 02:00N 51°20' E 003°49'2 3.7
2017-Nov-10 01:30N 51°21' E 003°46'0 0.1
2017-Nov-10 01:00N 51°21' E 003°46'2 3.7
2017-Nov-10 00:30N 51°20' E 003°49'  

Dump ship's entire track history